Wednesday, September 3, 2014, 2:58 AM EDT

KFDK, Frederick, Frederick Municipal Airport

Location: Frederick, MD, United States Lat: 39.417
Local Time: 2:58 AM EDT ( 6:58 GMT) Lon: -77.374
Time Zone: US/Eastern Elev: 301 ft

Show me the last for .
Show Decoded

2014-09-03 02:30 METAR KFDK 030630Z AUTO 00000KT 3/4SM BR BKN001 A2997 RMK AO2 LTG DSNT E =
2014-09-03 02:10 METAR KFDK 030610Z AUTO 00000KT 4SM HZ CLR A2997 RMK AO2 LTG DSNT E =
2014-09-03 01:50 METAR KFDK 030550Z AUTO 00000KT 5SM VCTSHZ CLR A2997 RMK AO2 LTG DSNT E =
2014-09-03 01:30 METAR KFDK 030530Z AUTO 00000KT 7SM CLR A2997 RMK AO2 LTG DSNT E =
2014-09-03 01:10 METAR KFDK 030510Z AUTO 00000KT 10SM VCTS CLR A2997 RMK AO2 LTG DSNT E AND SE =
2014-09-03 00:50 METAR KFDK 030450Z AUTO 00000KT 10SM CLR A2996 RMK AO2 LTG DSNT E =
2014-09-03 00:30 METAR KFDK 030430Z AUTO 02004KT 7SM SCT100 A2995 RMK AO2 LTG DSNT E =
2014-09-03 00:10 METAR KFDK 030410Z AUTO 13003KT 7SM BKN100 A2994 RMK AO2 LTG DSNT E =
2014-09-02 23:50 METAR KFDK 030350Z AUTO 00000KT 7SM OVC100 A2995 RMK AO2 =
2014-09-02 23:30 METAR KFDK 030330Z AUTO 00000KT 5SM HZ SCT110 A2994 RMK AO2 LTG DSNT E =
2014-09-02 23:10 METAR KFDK 030310Z AUTO 00000KT 5SM HZ SCT120 A2994 RMK AO2 LTG DSNT E AND W =
2014-09-02 22:50 METAR KFDK 030250Z AUTO 00000KT 7SM SCT120 A2994 RMK AO2 LTG DSNT E =
2014-09-02 22:30 METAR KFDK 030230Z AUTO 00000KT 7SM CLR A2994 RMK AO2 =
2014-09-02 22:10 METAR KFDK 030210Z AUTO 00000KT 10SM CLR A2994 RMK AO2 LTG DSNT W =
2014-09-02 21:50 METAR KFDK 030150Z AUTO 00000KT 10SM VCTS CLR A2994 RMK AO2 LTG DSNT E =
2014-09-02 21:30 METAR KFDK 030130Z AUTO 00000KT 10SM CLR A2994 RMK AO2 LTG DSNT E =
2014-09-02 21:10 METAR KFDK 030110Z AUTO 16003KT 5SM HZ CLR A2994 RMK AO2 LTG DSNT E AND SE =
2014-09-02 20:50 METAR KFDK 030050Z AUTO 00000KT 2 1/2SM BR CLR A2993 RMK AO2 LTG DSNT E AND SE =
2014-09-02 19:50 METAR KFDK 022350Z 00000KT 10SM SKC 22/22 A2992 =
2014-09-02 19:20 METAR KFDK 022320Z 18008KT 10SM VCTS BKN037 BKN060 23/23 A2992 =
2014-09-02 18:50 METAR KFDK 022250Z 29005KT 2SM +TSRA BKN055 23/23 A2993 =
2014-09-02 17:50 METAR KFDK 022150Z VRB03KT 10SM SCT030 BKN075 22/22 A2993 =
2014-09-02 16:50 METAR KFDK 022050Z 17005KT 10SM BKN055 29/21 A2987 =
2014-09-02 15:45 METAR KFDK 021945Z 23015G22 10SM VCTS BKN055 29/22 A2994 =
2014-09-02 14:45 METAR KFDK 021845Z 19008KT 10SM BKN048 BKN070 33/21 A2993 =
2014-09-02 13:45 METAR KFDK 021745Z 00000KT 10SM SCT044 BKN050 BKN095 31/21 A2995 =
2014-09-02 12:50 METAR KFDK 021650Z 26006KT 10SM BKN048 BKN060 32/21 A2998 =
2014-09-02 11:50 METAR KFDK 021550Z 26006G14KT 10SM BKN043 BKN050 32/20 A3000 =
2014-09-02 10:55 METAR KFDK 021455Z 30006G14KT 10SM SKC 31/21 A3001 =
2014-09-02 09:48 METAR KFDK 021348Z 00000KT 10SM SKC 29/22 A3001 =
2014-09-02 08:50 METAR KFDK 021250Z 20003KT 10SM SKC 27/23 A3000 =
2014-09-02 07:55 METAR KFDK 021155Z 00000KT 10SM SKC MM/MM A3001 =
2014-09-02 06:45 METAR KFDK 021045Z VRB03KT 10SM SKC MM/MM A2999 =
2014-09-02 06:05 METAR KFDK 021005Z AUTO 00000KT 7SM CLR A2998 RMK AO2 LTG DSNT E AND W =
2014-09-02 05:45 METAR KFDK 020945Z AUTO 17003KT 10SM CLR A2998 RMK AO2 LTG DSNT E AND SE =
2014-09-02 05:25 METAR KFDK 020925Z AUTO 00000KT 7SM CLR A2997 RMK AO2 LTG DSNT E =
2014-09-02 05:05 METAR KFDK 020905Z AUTO 00000KT 7SM CLR A2997 RMK AO2 LTG DSNT E =
2014-09-02 04:45 METAR KFDK 020845Z AUTO 00000KT 5SM HZ CLR A2998 RMK AO2 LTG DSNT E =
2014-09-02 04:25 METAR KFDK 020825Z AUTO 00000KT 5SM HZ CLR A2997 RMK AO2 LTG DSNT E =
2014-09-02 04:05 METAR KFDK 020805Z AUTO 00000KT 5SM HZ CLR A2998 RMK AO2 LTG DSNT E =
2014-09-02 03:45 METAR KFDK 020745Z AUTO 00000KT 7SM CLR A2998 RMK AO2 LTG DSNT E =
2014-09-02 03:25 METAR KFDK 020725Z AUTO 18004KT 7SM CLR A2998 RMK AO2 LTG DSNT E =
2014-09-02 03:05 METAR KFDK 020705Z AUTO 00000KT 7SM CLR A2998 RMK AO2 LTG DSNT E =

Support USWX by starting your Amazon purchase here.